KPSK

New River Valley Airport

Dublin, Virginia, USA
METAR KPSK 182315Z AUTO 22007KT 10SM SCT018 24/20 A2998 RMK AO2 LTG DSNT NW T02420200
Observed Flight Rules
Aug-18 @ 23:15 UTC (30 minutes ago) Visual Flight Rules
Wind Visibility Clouds
220° at 7 knots 10 miles
  • Scattered at 1,800' AGL
Temperatures Readings
Current 24°C / 75°F
Dewpoint 20°C / 68°F
Humidity 78%
Altimeter 29.98" Hg
Pressure 1015 hPa
Elevation 642
METAR KPSK 182315Z AUTO 22007KT 10SM SCT018 24/20 A2998 RMK AO2 LTG DSNT NW T02420200
Observed Flight Rules
Aug-18 @ 23:15 UTC
(30 minutes ago)
VFR
Wind Visibility
220° at 7 knots 10 miles
Clouds
  • Scattered at 1,800' AGL
Temperature Dewpoint
24°C / 75°F 20°C / 68°F
Humidity Altimeter Pressure
78% 29.98" Hg 1015 hPa